Time;durP1;ratioP1;P1;durP2;ratioP2;P2;SDS_P1;SDS_P2;PMS_P1;PMS_P2;Temp;Humidity;BMP_temperature;BMP_pressure;BME280_temperature;BME280_humidity;BME280_pressure;Samples;Min_cycle;Max_cycle;Signal;HPM_P1;HPM_P2
2021/09/12 00:02:16;;;;;;;894.05;829.67;;;;;;;9.85;63.54;93518.63;5106114;28;20024;-45
2021/09/12 00:04:41;;;;;;;894.10;828.63;;;;;;;9.85;63.67;93531.69;5103364;28;20031;-46
2021/09/12 00:07:07;;;;;;;904.55;839.03;;;;;;;9.71;64.27;93531.06;5101343;28;20455;-45
2021/09/12 00:09:32;;;;;;;927.75;858.65;;;;;;;9.79;63.66;93518.03;5103093;28;20048;-47
2021/09/12 00:11:58;;;;;;;906.35;840.35;;;;;;;9.76;63.53;93521.16;5101684;28;20040;-45
2021/09/12 00:14:24;;;;;;;941.35;873.13;;;;;;;9.75;64.28;93523.16;5102631;28;20123;-47
2021/09/12 00:16:49;;;;;;;934.33;865.88;;;;;;;9.69;64.21;93530.09;5100112;28;20539;-46
2021/09/12 00:19:15;;;;;;;971.20;900.72;;;;;;;9.71;64.14;93528.28;5104962;28;20016;-45
2021/09/12 00:21:40;;;;;;;943.92;877.55;;;;;;;9.67;63.90;93527.16;5101053;28;20016;-46
2021/09/12 00:24:06;;;;;;;909.05;843.17;;;;;;;9.61;64.31;93526.56;5098069;28;20020;-45
2021/09/12 00:26:31;;;;;;;934.17;865.97;;;;;;;9.62;63.89;93526.03;5102283;28;20193;-46
2021/09/12 00:28:57;;;;;;;963.30;892.78;;;;;;;9.63;64.04;93524.75;5102247;28;20020;-46
2021/09/12 00:31:22;;;;;;;961.63;892.22;;;;;;;9.61;63.68;93527.31;5100418;28;20016;-47
2021/09/12 00:33:47;;;;;;;965.75;896.47;;;;;;;9.54;64.10;93524.50;5102379;28;20035;-45
2021/09/12 00:36:13;;;;;;;930.08;863.20;;;;;;;9.49;63.30;93530.88;5101224;28;20081;-45
2021/09/12 00:38:38;;;;;;;928.35;863.55;;;;;;;9.38;63.37;93528.41;5101039;28;20047;-45
2021/09/12 00:41:04;;;;;;;931.10;863.72;;;;;;;9.37;63.83;93529.69;5103709;28;20065;-44
2021/09/12 00:43:29;;;;;;;951.42;881.30;;;;;;;9.33;64.33;93529.28;5100572;28;20156;-46
2021/09/12 00:45:56;;;;;;;962.33;892.72;;;;;;;9.25;64.06;93525.75;5101046;28;20030;-44
2021/09/12 00:48:23;;;;;;;964.50;892.47;;;;;;;9.22;64.92;93526.81;5102458;28;20462;-44
2021/09/12 00:50:49;;;;;;;961.65;890.83;;;;;;;9.18;65.07;93526.41;5100342;28;20027;-44
2021/09/12 00:53:16;;;;;;;977.67;905.25;;;;;;;9.22;64.85;93524.78;5100601;28;20028;-46
2021/09/12 00:55:43;;;;;;;990.00;918.17;;;;;;;9.23;64.96;93520.75;5102023;28;20027;-44
2021/09/12 00:58:11;;;;;;;993.15;918.95;;;;;;;9.16;65.28;93524.91;5101285;28;20023;-43
2021/09/12 01:00:36;;;;;;;998.08;923.97;;;;;;;9.22;64.98;93524.06;5098209;28;20016;-43
2021/09/12 01:03:02;;;;;;;981.75;910.20;;;;;;;9.18;65.04;93526.41;5091015;28;20105;-43
2021/09/12 01:05:27;;;;;;;969.75;899.03;;;;;;;9.20;65.29;93518.34;5090351;28;20055;-44
2021/09/12 01:07:53;;;;;;;972.75;903.13;;;;;;;9.20;65.13;93521.09;5090535;28;20059;-43
2021/09/12 01:10:18;;;;;;;954.85;884.20;;;;;;;9.15;64.97;93522.72;5111118;28;20051;-43
2021/09/12 01:12:44;;;;;;;980.60;909.00;;;;;;;9.04;65.43;93520.22;5111559;28;20035;-44
2021/09/12 01:15:09;;;;;;;984.75;911.63;;;;;;;9.08;64.84;93523.38;5110168;28;20059;-44
2021/09/12 01:17:35;;;;;;;991.00;916.50;;;;;;;9.09;64.46;93525.59;5111460;28;20076;-43
2021/09/12 01:20:01;;;;;;;959.38;891.15;;;;;;;9.11;64.20;93523.06;5111137;28;20023;-43
2021/09/12 01:22:26;;;;;;;971.85;901.30;;;;;;;9.04;64.08;93518.22;5111456;28;20038;-51
2021/09/12 01:24:52;;;;;;;981.85;910.25;;;;;;;9.04;63.96;93523.72;5111396;28;20072;-45
2021/09/12 01:27:17;;;;;;;967.20;896.10;;;;;;;8.94;64.35;93530.94;5111319;28;20019;-50
2021/09/12 01:29:43;;;;;;;996.67;923.92;;;;;;;8.81;64.26;93503.50;5111274;28;20587;-46
2021/09/12 01:32:09;;;;;;;995.53;922.28;;;;;;;8.92;64.71;93525.25;5111323;28;20488;-47
2021/09/12 01:34:35;;;;;;;965.33;895.33;;;;;;;8.82;65.61;93529.72;5111263;28;20664;-45
2021/09/12 01:37:00;;;;;;;960.47;889.58;;;;;;;8.74;66.03;93528.94;5111178;28;20034;-47
2021/09/12 01:39:26;;;;;;;974.50;902.72;;;;;;;8.74;65.99;93528.19;5111146;28;20027;-47
2021/09/12 01:41:51;;;;;;;990.78;915.20;;;;;;;8.78;66.03;93528.59;5093820;28;20020;-46
2021/09/12 01:44:23;;;;;;;1003.40;928.13;;;;;;;8.80;66.22;93526.78;5089511;28;20032;-46
2021/09/12 01:46:50;;;;;;;978.88;906.47;;;;;;;8.78;66.00;93532.09;5090468;28;20122;-45
2021/09/12 01:49:15;;;;;;;979.97;908.05;;;;;;;8.66;66.75;93524.63;5090209;28;20028;-47
2021/09/12 01:51:41;;;;;;;999.47;925.50;;;;;;;8.73;66.22;93521.94;5090544;28;20077;-45
2021/09/12 01:54:06;;;;;;;951.45;881.90;;;;;;;8.74;66.48;93519.91;5101371;28;20510;-45
2021/09/12 01:56:32;;;;;;;984.00;912.47;;;;;;;8.72;66.16;93514.97;5110915;28;20072;-45
2021/09/12 01:58:58;;;;;;;967.67;899.15;;;;;;;8.69;66.40;93513.25;5110946;28;20416;-45
2021/09/12 02:01:23;;;;;;;994.85;921.42;;;;;;;8.77;65.05;93521.63;5110523;28;20061;-45
2021/09/12 02:03:49;;;;;;;968.38;898.22;;;;;;;8.81;64.70;93525.53;5110608;28;20067;-45
2021/09/12 02:06:15;;;;;;;973.70;902.15;;;;;;;8.77;64.24;93521.63;5110813;28;20022;-47
2021/09/12 02:08:40;;;;;;;962.88;893.63;;;;;;;8.62;64.81;93524.22;5110410;28;20451;-46
2021/09/12 02:11:06;;;;;;;1000.42;925.60;;;;;;;8.55;64.75;93522.84;5110268;28;20043;-45
2021/09/12 02:13:31;;;;;;;984.28;913.83;;;;;;;8.60;64.70;93524.00;5110771;28;20788;-45
2021/09/12 02:15:57;;;;;;;993.75;922.20;;;;;;;8.62;64.66;93518.72;5110051;28;20148;-45
2021/09/12 02:18:22;;;;;;;985.53;913.22;;;;;;;8.44;64.56;93498.34;5114698;28;20497;-47
2021/09/12 02:20:48;;;;;;;999.65;926.03;;;;;;;8.50;65.47;93517.47;5114589;28;20027;-45
2021/09/12 02:23:13;;;;;;;996.47;922.03;;;;;;;8.45;65.94;93510.06;5114763;28;20035;-46
2021/09/12 02:25:39;;;;;;;1004.55;929.63;;;;;;;8.44;66.01;93523.09;5114755;28;20035;-45
2021/09/12 02:28:05;;;;;;;999.55;925.53;;;;;;;8.35;65.77;93515.28;5114501;28;20020;-46
2021/09/12 02:30:30;;;;;;;982.30;909.95;;;;;;;8.40;65.36;93522.69;5114375;28;20144;-46
2021/09/12 02:32:56;;;;;;;1012.92;937.28;;;;;;;8.30;65.74;93496.88;5114681;28;20080;-46
2021/09/12 02:35:22;;;;;;;977.63;903.97;;;;;;;8.35;66.36;93518.78;5114327;28;20028;-47
2021/09/12 02:37:47;;;;;;;979.13;905.38;;;;;;;8.16;66.27;93487.91;5114576;28;20019;-45
2021/09/12 02:40:13;;;;;;;1015.17;941.30;;;;;;;8.35;65.45;93510.53;5111612;28;20489;-46
2021/09/12 02:42:39;;;;;;;996.25;921.72;;;;;;;8.30;65.54;93522.38;5094129;28;20028;-47
2021/09/12 02:45:07;;;;;;;995.65;922.35;;;;;;;8.29;66.13;93523.63;5094114;28;20049;-46
2021/09/12 02:47:32;;;;;;;1001.45;925.72;;;;;;;8.26;65.81;93513.72;5114406;28;20110;-47
2021/09/12 02:49:57;;;;;;;1002.28;925.83;;;;;;;8.22;65.65;93516.03;5106288;28;20562;-47
2021/09/12 02:52:23;;;;;;;1010.65;936.28;;;;;;;8.05;65.96;93521.13;5093951;28;20023;-46
2021/09/12 02:54:48;;;;;;;995.67;919.92;;;;;;;8.13;65.96;93521.97;5093925;28;20444;-46
2021/09/12 02:57:14;;;;;;;1017.80;942.75;;;;;;;8.09;65.97;93515.28;5093744;28;20512;-46
2021/09/12 02:59:39;;;;;;;1001.22;924.83;;;;;;;8.09;66.38;93520.78;5093665;28;20027;-46
2021/09/12 03:02:04;;;;;;;1016.78;939.97;;;;;;;8.01;66.92;93520.69;5093720;28;20085;-46
2021/09/12 03:04:30;;;;;;;1010.45;932.22;;;;;;;8.06;66.77;93528.09;5093781;28;20024;-47
2021/09/12 03:06:55;;;;;;;1006.47;931.28;;;;;;;7.96;67.36;93526.31;5093667;28;20481;-46
2021/09/12 03:09:21;;;;;;;1018.17;941.72;;;;;;;7.84;67.38;93520.28;5106147;28;20045;-47
2021/09/12 03:11:46;;;;;;;1011.72;934.58;;;;;;;7.98;66.91;93532.75;5113909;28;20022;-47
2021/09/12 03:14:12;;;;;;;1023.25;944.83;;;;;;;8.01;66.56;93520.69;5113619;28;20035;-45
2021/09/12 03:16:37;;;;;;;999.08;922.78;;;;;;;7.95;66.75;93522.09;5113522;28;20231;-45
2021/09/12 03:19:03;;;;;;;998.13;921.50;;;;;;;7.91;66.64;93527.16;5113592;28;20024;-45
2021/09/12 03:21:28;;;;;;;1020.72;941.65;;;;;;;7.91;66.51;93525.16;5113178;28;20027;-44
2021/09/12 03:23:54;;;;;;;993.97;916.53;;;;;;;7.81;66.05;93499.38;5113439;28;20019;-44
2021/09/12 03:26:19;;;;;;;1007.53;928.33;;;;;;;7.97;65.46;93523.03;5113362;28;20020;-44
2021/09/12 03:28:45;;;;;;;1013.08;935.53;;;;;;;7.91;65.57;93525.16;5112829;27;20027;-43
2021/09/12 03:31:10;;;;;;;1009.08;931.08;;;;;;;7.89;65.17;93524.94;5113337;28;20035;-43
2021/09/12 03:33:35;;;;;;;1016.58;937.08;;;;;;;7.85;65.71;93529.28;5113476;28;20047;-44
2021/09/12 03:36:01;;;;;;;1038.50;958.08;;;;;;;7.78;66.22;93525.16;5113487;28;20582;-48
2021/09/12 03:38:26;;;;;;;1019.55;939.20;;;;;;;7.74;66.65;93526.72;5112194;28;20106;-47
2021/09/12 03:40:52;;;;;;;1006.05;926.83;;;;;;;7.59;66.85;93503.28;5104738;28;20021;-46
2021/09/12 03:43:17;;;;;;;1033.53;952.22;;;;;;;7.76;66.59;93526.94;5092870;28;20078;-49
2021/09/12 03:45:43;;;;;;;991.00;913.67;;;;;;;7.75;66.52;93523.47;5096358;28;20463;-46
2021/09/12 03:48:08;;;;;;;996.10;916.47;;;;;;;7.71;66.67;93522.31;5113334;28;20020;-47
2021/09/12 03:50:34;;;;;;;1025.03;942.53;;;;;;;7.74;66.85;93518.47;5112914;28;20027;-46
2021/09/12 03:53:00;;;;;;;987.55;911.13;;;;;;;7.68;66.69;93521.34;5112929;28;20106;-47
2021/09/12 03:55:25;;;;;;;1007.63;929.22;;;;;;;7.62;67.61;93517.97;5112746;28;20047;-47
2021/09/12 03:57:51;;;;;;;1024.80;943.13;;;;;;;7.54;67.53;93515.09;5112844;28;20036;-47
2021/09/12 04:00:17;;;;;;;1022.95;940.83;;;;;;;7.58;67.22;93521.00;5112670;28;20023;-50
2021/09/12 04:02:43;;;;;;;1040.70;957.25;;;;;;;7.58;67.00;93525.75;5112993;28;20020;-47
2021/09/12 04:05:09;;;;;;;1010.15;927.80;;;;;;;7.55;66.81;93518.59;5112631;28;20465;-48
2021/09/12 04:07:35;;;;;;;1027.20;946.60;;;;;;;7.44;67.14;93518.78;5112498;28;20020;-47
2021/09/12 04:10:01;;;;;;;1022.20;944.13;;;;;;;7.53;67.27;93529.38;5092996;28;20055;-47
2021/09/12 04:12:27;;;;;;;1029.88;946.55;;;;;;;7.57;67.29;93533.28;5092624;28;20031;-47
2021/09/12 04:14:53;;;;;;;1012.60;931.50;;;;;;;7.57;67.20;93533.28;5092317;28;20085;-48
2021/09/12 04:17:18;;;;;;;1020.38;938.22;;;;;;;7.56;67.72;93531.78;5092230;28;20055;-47
2021/09/12 04:19:44;;;;;;;1016.53;936.78;;;;;;;7.54;68.14;93528.84;5092202;28;20070;-47
2021/09/12 04:22:09;;;;;;;1039.50;956.63;;;;;;;7.59;68.04;93530.00;5092238;28;20027;-46
2021/09/12 04:24:35;;;;;;;1014.55;935.58;;;;;;;7.68;67.31;93534.34;5092207;28;20082;-48
2021/09/12 04:27:00;;;;;;;1041.05;957.47;;;;;;;7.68;67.40;93532.34;5092164;28;20027;-49
2021/09/12 04:29:26;;;;;;;1023.08;941.50;;;;;;;7.61;67.61;93527.47;5091682;28;20084;-48
2021/09/12 04:31:51;;;;;;;1016.05;933.53;;;;;;;7.62;67.45;93540.66;5091959;28;20107;-47
2021/09/12 04:34:16;;;;;;;1018.78;936.80;;;;;;;7.73;66.61;93536.25;5092025;28;20024;-47
2021/09/12 04:36:42;;;;;;;1028.65;946.03;;;;;;;7.65;66.28;93528.63;5091935;28;20020;-48
2021/09/12 04:39:07;;;;;;;1048.55;962.22;;;;;;;7.73;66.89;93533.50;5091166;28;20500;-45
2021/09/12 04:41:33;;;;;;;1029.18;945.78;;;;;;;7.71;67.43;93530.56;5104555;28;20062;-48
2021/09/12 04:43:58;;;;;;;1048.85;964.80;;;;;;;7.78;67.45;93535.38;5091834;28;20085;-47
2021/09/12 04:46:24;;;;;;;1049.85;955.10;;;;;;;7.70;67.77;93527.06;5091766;28;20054;-49
2021/09/12 04:48:49;;;;;;;1030.15;943.38;;;;;;;7.61;67.02;93514.47;5091775;28;20024;-46
2021/09/12 04:51:15;;;;;;;1043.15;958.05;;;;;;;7.80;67.01;93530.84;5091350;28;20028;-47
2021/09/12 04:53:40;;;;;;;1010.65;932.33;;;;;;;7.77;67.06;93529.19;5091583;28;20024;-46
2021/09/12 04:56:06;;;;;;;1038.97;954.92;;;;;;;7.79;67.03;93532.13;5091605;28;20477;-48
2021/09/12 04:58:31;;;;;;;1012.67;931.92;;;;;;;7.80;66.40;93528.09;5091557;28;20390;-48
2021/09/12 05:00:57;;;;;;;1023.63;937.08;;;;;;;7.84;66.46;93534.03;5091052;28;20047;-48
2021/09/12 05:03:23;;;;;;;1031.15;948.33;;;;;;;7.92;66.26;93534.13;5091363;28;20412;-45
2021/09/12 05:05:48;;;;;;;1015.42;931.90;;;;;;;7.91;66.63;93536.13;5091036;28;20024;-45
2021/09/12 05:08:14;;;;;;;1016.92;934.22;;;;;;;7.93;67.09;93530.84;5094995;28;20075;-46
2021/09/12 05:10:39;;;;;;;996.63;917.00;;;;;;;7.95;67.56;93536.56;5107340;28;20035;-47
2021/09/12 05:13:05;;;;;;;1027.25;946.65;;;;;;;8.04;67.39;93543.63;5091282;28;20027;-46
2021/09/12 05:15:30;;;;;;;1019.10;938.78;;;;;;;8.17;67.97;93538.13;5091146;28;20020;-47
2021/09/12 05:17:55;;;;;;;1009.55;930.55;;;;;;;8.26;68.09;93545.97;5091253;28;20485;-47
2021/09/12 05:20:21;;;;;;;1016.63;938.83;;;;;;;8.33;68.25;93529.56;5094844;28;20061;-46
2021/09/12 05:22:46;;;;;;;1041.00;960.60;;;;;;;8.46;68.88;93548.06;5111262;28;20011;-46
2021/09/12 05:25:12;;;;;;;992.13;916.80;;;;;;;8.58;68.75;93545.78;5097524;28;20016;-46
2021/09/12 05:27:37;;;;;;;998.55;922.85;;;;;;;8.61;68.38;93531.72;5109779;28;20024;-46
2021/09/12 05:30:04;;;;;;;999.25;924.25;;;;;;;8.80;68.94;93537.03;5110435;28;20040;-45
2021/09/12 05:32:29;;;;;;;990.05;916.50;;;;;;;8.97;68.49;93532.63;5108521;28;20103;-46
2021/09/12 05:34:55;;;;;;;984.65;910.22;;;;;;;8.91;68.35;93517.53;5109427;28;20027;-47
2021/09/12 05:37:20;;;;;;;1009.53;932.83;;;;;;;9.16;68.63;93535.19;5109055;28;20392;-47
2021/09/12 05:39:46;;;;;;;1000.75;922.95;;;;;;;9.19;69.38;93539.63;5109351;28;20048;-47
2021/09/12 05:42:11;;;;;;;1007.85;931.25;;;;;;;9.33;69.43;93537.56;5109340;28;20030;-46
2021/09/12 05:44:37;;;;;;;973.80;899.22;;;;;;;9.45;69.37;93547.75;5109365;28;20030;-46
2021/09/12 05:47:03;;;;;;;1009.92;932.20;;;;;;;9.55;68.70;93534.25;5110214;28;20098;-46
2021/09/12 05:49:28;;;;;;;1024.70;943.65;;;;;;;9.67;69.23;93543.69;5100738;28;20100;-48
2021/09/12 05:51:54;;;;;;;1025.55;945.83;;;;;;;9.75;69.24;93531.44;5090074;28;20020;-47
2021/09/12 05:54:19;;;;;;;996.08;913.25;;;;;;;9.86;68.72;93533.91;5090584;28;20043;-46
2021/09/12 05:56:44;;;;;;;1008.65;927.10;;;;;;;9.94;69.04;93533.94;5090289;28;20492;-46
2021/09/12 05:59:10;;;;;;;1037.10;949.47;;;;;;;10.08;68.91;93532.56;5090228;28;20020;-46
2021/09/12 06:01:36;;;;;;;1024.68;941.55;;;;;;;10.20;68.93;93531.00;5090482;28;20016;-49
2021/09/12 06:04:01;;;;;;;1036.78;949.10;;;;;;;10.33;68.69;93525.34;5090129;28;20425;-46
2021/09/12 06:06:27;;;;;;;1038.18;952.05;;;;;;;10.49;68.58;93526.91;5090248;28;20023;-46
2021/09/12 06:08:52;;;;;;;1038.95;956.13;;;;;;;10.62;68.09;93524.00;5099410;28;20016;-47
2021/09/12 06:11:18;;;;;;;1046.28;954.75;;;;;;;10.78;68.19;93524.06;5110192;28;20036;-47
2021/09/12 06:13:45;;;;;;;1028.32;946.35;;;;;;;10.93;67.98;93521.31;5110538;28;20048;-46
2021/09/12 06:16:10;;;;;;;1044.45;961.13;;;;;;;11.12;67.78;93519.69;5106998;28;20031;-46
2021/09/12 06:18:36;;;;;;;1025.00;943.42;;;;;;;11.30;67.69;93513.06;5108336;28;20119;-46
2021/09/12 06:21:03;;;;;;;1006.67;924.45;;;;;;;11.50;67.44;93521.75;5107839;28;20114;-46
2021/09/12 06:23:30;;;;;;;1039.25;956.85;;;;;;;11.52;67.43;93506.06;5108111;28;20039;-46
2021/09/12 06:25:56;;;;;;;1039.05;953.50;;;;;;;11.77;67.01;93533.94;5107936;28;20039;-46
2021/09/12 06:28:21;;;;;;;1031.15;946.10;;;;;;;12.08;67.86;93524.31;5107733;28;20031;-46
2021/09/12 06:30:46;;;;;;;1020.80;937.38;;;;;;;12.25;67.40;93530.00;5108054;28;20030;-46
2021/09/12 06:33:12;;;;;;;1003.60;924.33;;;;;;;12.41;66.33;93530.69;5108985;28;20419;-46
2021/09/12 06:35:37;;;;;;;997.75;915.97;;;;;;;12.55;65.67;93529.88;5110537;28;20053;-46
2021/09/12 06:38:03;;;;;;;995.03;914.65;;;;;;;12.76;65.35;93526.84;5107923;28;20032;-46
2021/09/12 06:40:30;;;;;;;1000.58;917.53;;;;;;;12.90;63.64;93530.84;5094739;28;20055;-47
2021/09/12 06:42:58;;;;;;;1000.15;918.65;;;;;;;13.03;64.41;93533.38;5110257;28;20023;-47
2021/09/12 06:45:25;;;;;;;1035.22;946.97;;;;;;;13.23;63.86;93524.00;5110028;28;20024;-46
2021/09/12 06:47:50;;;;;;;1037.70;946.45;;;;;;;13.56;61.90;93528.22;5110441;28;20495;-47
2021/09/12 06:50:16;;;;;;;1068.68;967.50;;;;;;;13.90;60.58;93521.31;5110111;28;20064;-46
2021/09/12 06:52:41;;;;;;;994.35;898.65;;;;;;;14.36;59.23;93523.06;5110134;28;20108;-46
2021/09/12 06:55:07;;;;;;;975.53;874.75;;;;;;;14.89;59.30;93519.69;5110221;28;20103;-47
2021/09/12 06:57:33;;;;;;;1023.88;854.65;;;;;;;15.56;57.45;93516.53;5109972;28;20110;-47
2021/09/12 06:59:58;;;;;;;1211.22;833.25;;;;;;;16.37;54.28;93518.50;5110037;28;20032;-48
2021/09/12 07:02:24;;;;;;;1446.05;935.90;;;;;;;17.22;50.11;93521.84;5110354;28;20024;-46
2021/09/12 07:04:50;;;;;;;1488.55;999.90;;;;;;;18.22;48.92;93522.50;5113745;28;20028;-47
2021/09/12 07:07:15;;;;;;;1544.15;999.90;;;;;;;19.86;44.81;93520.47;5113826;28;20055;-47
2021/09/12 07:09:40;;;;;;;1371.40;999.90;;;;;;;21.74;40.75;93512.41;5113398;28;20046;-48
2021/09/12 07:12:08;;;;;;;1300.50;999.90;;;;;;;23.51;37.13;93521.47;5114005;28;20619;-49
2021/09/12 07:14:34;;;;;;;1121.57;999.90;;;;;;;25.12;33.00;93523.00;5113916;28;20034;-47
2021/09/12 07:16:59;;;;;;;1105.35;999.90;;;;;;;26.66;30.58;93516.25;5113752;28;20027;-49
2021/09/12 07:19:25;;;;;;;1027.28;948.15;;;;;;;28.20;27.71;93519.22;5113861;28;20484;-49
2021/09/12 07:21:52;;;;;;;930.22;861.60;;;;;;;29.58;26.45;93519.47;5113244;28;20024;-48
2021/09/12 07:24:17;;;;;;;842.13;785.63;;;;;;;30.82;23.83;93523.66;5113785;28;20027;-47
2021/09/12 07:26:43;;;;;;;794.67;742.55;;;;;;;31.91;22.23;93531.34;5113479;28;20020;-48
2021/09/12 07:29:08;;;;;;;772.97;722.45;;;;;;;32.86;21.48;93528.44;5113373;28;20024;-46
2021/09/12 07:31:34;;;;;;;754.50;705.88;;;;;;;33.50;20.18;93528.50;5113542;28;20081;-47
2021/09/12 07:34:02;;;;;;;752.58;704.72;;;;;;;34.31;19.87;93521.25;5113213;28;20412;-46
2021/09/12 07:36:28;;;;;;;645.78;606.83;;;;;;;34.94;18.29;93515.84;5093226;27;20020;-47
2021/09/12 07:38:53;;;;;;;649.25;610.33;;;;;;;35.58;17.98;93513.22;5092796;28;20440;-46
2021/09/12 07:41:18;;;;;;;583.78;548.55;;;;;;;36.36;17.13;93512.47;5099952;28;20085;-48
2021/09/12 07:43:44;;;;;;;519.17;489.90;;;;;;;36.84;17.08;93510.94;5092830;28;20024;-46
2021/09/12 07:46:09;;;;;;;526.03;495.33;;;;;;;37.10;16.41;93513.75;5092894;28;20016;-47
2021/09/12 07:48:35;;;;;;;471.60;444.63;;;;;;;37.66;15.92;93509.84;5092690;28;20461;-48
2021/09/12 07:51:02;;;;;;;475.77;449.50;;;;;;;38.14;15.51;93512.34;5092527;28;20027;-47
2021/09/12 07:53:29;;;;;;;367.70;348.05;;;;;;;38.65;14.11;93515.47;5092749;28;20062;-46
2021/09/12 07:55:54;;;;;;;329.95;313.10;;;;;;;38.30;13.80;93517.28;5092878;28;20028;-48
2021/09/12 07:58:21;;;;;;;337.05;319.42;;;;;;;38.63;13.70;93506.84;5092395;28;20089;-47
2021/09/12 08:00:47;;;;;;;304.33;288.17;;;;;;;38.82;14.15;93513.16;5091394;28;20028;-47
2021/09/12 08:03:12;;;;;;;303.90;288.27;;;;;;;39.17;13.38;93517.09;5092248;28;20035;-47
2021/09/12 08:05:38;;;;;;;281.08;266.17;;;;;;;39.68;12.91;93511.38;5092251;28;20470;-48
2021/09/12 08:08:03;;;;;;;230.25;218.75;;;;;;;39.38;11.90;93515.34;5094853;28;20102;-47
2021/09/12 08:10:29;;;;;;;231.90;219.73;;;;;;;39.07;12.89;93494.09;5112114;28;20047;-48
2021/09/12 08:12:54;;;;;;;237.80;225.55;;;;;;;39.06;13.29;93499.16;5112921;28;20027;-52
2021/09/12 08:15:20;;;;;;;214.20;203.85;;;;;;;37.36;13.77;93502.09;5112026;27;20035;-48
2021/09/12 08:17:46;;;;;;;202.35;192.38;;;;;;;37.57;14.67;93500.53;5112464;28;20026;-48
2021/09/12 08:20:11;;;;;;;164.68;156.73;;;;;;;37.43;13.54;93499.88;5112728;28;20059;-48
2021/09/12 08:22:37;;;;;;;147.02;139.82;;;;;;;36.71;14.68;93495.84;5112372;28;20409;-48
2021/09/12 08:25:03;;;;;;;133.00;125.97;;;;;;;37.55;14.04;93502.69;5112642;28;20020;-51
2021/09/12 08:27:29;;;;;;;142.45;135.35;;;;;;;38.15;13.86;93501.53;5112436;28;20027;-49
2021/09/12 08:29:54;;;;;;;90.80;85.93;;;;;;;37.33;12.52;93497.75;5112449;28;20831;-48
2021/09/12 08:32:20;;;;;;;108.72;103.47;;;;;;;37.56;13.42;93499.06;5094851;28;20039;-51
2021/09/12 08:34:45;;;;;;;75.90;72.03;;;;;;;38.20;12.00;93497.88;5091965;28;20032;-50
2021/09/12 08:37:11;;;;;;;83.53;79.38;;;;;;;38.83;12.16;93497.28;5091669;28;20417;-51
2021/09/12 08:39:36;;;;;;;99.50;94.13;;;;;;;39.38;11.98;93492.25;5091925;28;20061;-52
2021/09/12 08:42:01;;;;;;;97.13;92.05;;;;;;;39.89;11.50;93484.28;5109888;28;20026;-52
2021/09/12 08:44:27;;;;;;;119.70;113.75;;;;;;;40.28;11.43;93489.44;5112069;28;20038;-52
2021/09/12 08:46:53;;;;;;;125.68;119.05;;;;;;;40.62;10.98;93480.88;5111874;28;20107;-53
2021/09/12 08:49:18;;;;;;;118.00;110.72;;;;;;;41.06;10.64;93481.47;5112054;28;20027;-51
2021/09/12 08:51:44;;;;;;;103.35;98.22;;;;;;;41.22;10.24;93470.25;5111676;28;20024;-52
2021/09/12 08:54:09;;;;;;;71.95;68.50;;;;;;;40.86;10.57;93471.03;5111728;28;20023;-52
2021/09/12 08:56:35;;;;;;;55.83;52.97;;;;;;;40.44;10.00;93457.31;5112120;28;20023;-54
2021/09/12 08:59:01;;;;;;;53.28;50.10;;;;;;;40.76;10.38;93469.00;5111552;28;20503;-52
2021/09/12 09:01:31;;;;;;;58.15;54.95;;;;;;;40.80;10.38;93465.31;5111533;28;20652;-52
2021/09/12 09:04:00;;;;;;;60.22;56.97;;;;;;;40.85;10.55;93469.59;5111860;28;20032;-54
2021/09/12 09:06:32;;;;;;;48.60;45.45;;;;;;;40.94;10.15;93461.44;5111482;28;20118;-53
2021/09/12 09:09:02;;;;;;;47.53;44.83;;;;;;;40.96;10.13;93467.91;5111152;28;20072;-54
2021/09/12 09:11:29;;;;;;;49.70;46.75;;;;;;;40.78;9.88;93453.78;5111110;28;20059;-53
2021/09/12 09:13:55;;;;;;;34.97;33.30;;;;;;;39.64;11.22;93456.47;5111359;28;20098;-53
2021/09/12 09:16:28;;;;;;;50.58;47.97;;;;;;;40.08;11.42;93450.72;5111565;28;20111;-53
2021/09/12 09:19:04;;;;;;;38.22;35.65;;;;;;;40.42;11.36;93452.31;5111557;28;20081;-54
2021/09/12 09:21:32;;;;;;;35.58;33.55;;;;;;;40.67;10.76;93449.66;5111347;28;20091;-53
2021/09/12 09:24:09;;;;;;;46.17;43.85;;;;;;;40.36;11.29;93457.47;5111582;28;20102;-52
2021/09/12 09:26:37;;;;;;;35.60;33.57;;;;;;;41.09;10.99;93460.41;5110088;28;20114;-54
2021/09/12 09:29:02;;;;;;;38.45;36.20;;;;;;;41.60;10.27;93448.44;5090069;28;20028;-53
2021/09/12 09:31:27;;;;;;;45.30;43.10;;;;;;;41.96;10.66;93446.84;5090645;28;20055;-54
2021/09/12 09:33:53;;;;;;;40.03;37.88;;;;;;;41.88;9.71;93444.16;5089696;28;20157;-54
2021/09/12 09:36:19;;;;;;;40.17;37.38;;;;;;;41.69;10.45;93440.28;5090945;28;20024;-54
2021/09/12 09:38:47;;;;;;;17.67;16.50;;;;;;;41.79;9.35;93440.75;5090888;28;20035;-54
2021/09/12 09:41:14;;;;;;;25.52;21.58;;;;;;;42.17;9.75;93436.91;5101524;28;20106;-54
2021/09/12 09:43:46;;;;;;;;;;;;;;;42.74;9.38;93447.72;5111407;28;20039;-54
2021/09/12 09:46:36;;;;;;;14.77;13.95;;;;;;;42.74;9.70;93444.81;5111099;28;19908;-54
2021/09/12 09:49:38;;;;;;;14.77;13.77;;;;;;;42.12;9.98;93434.88;5111119;28;20042;-53
2021/09/12 09:52:05;;;;;;;16.15;15.35;;;;;;;41.64;10.23;93438.91;5067366;28;20033;-54
2021/09/12 09:54:32;;;;;;;14.07;13.18;;;;;;;41.48;10.21;93432.00;5102365;28;20572;-55
2021/09/12 09:56:58;;;;;;;16.80;15.82;;;;;;;39.97;10.42;93406.06;5110683;28;20562;-54
2021/09/12 09:59:25;;;;;;;15.88;14.75;;;;;;;38.45;12.62;93429.84;5110595;28;20062;-53
2021/09/12 10:01:53;;;;;;;13.95;13.07;;;;;;;38.13;13.20;93430.19;5110912;28;20024;-54
2021/09/12 10:04:23;;;;;;;21.33;20.03;;;;;;;37.85;12.92;93424.69;5110680;28;20024;-53
2021/09/12 10:06:49;;;;;;;20.30;18.85;;;;;;;38.19;13.10;93427.22;5110644;28;20225;-54
2021/09/12 10:09:17;;;;;;;14.63;13.60;;;;;;;38.74;11.72;93427.38;5110360;28;20395;-52
2021/09/12 10:11:49;;;;;;;19.52;18.48;;;;;;;39.14;12.45;93418.19;5110455;28;20080;-53
2021/09/12 10:14:20;;;;;;;14.85;13.38;;;;;;;39.92;11.66;93416.25;5110669;28;20038;-55
2021/09/12 10:16:47;;;;;;;24.77;23.42;;;;;;;39.95;11.37;93417.66;5110585;28;20204;-54
2021/09/12 10:19:39;;;;;;;23.77;22.55;;;;;;;40.92;10.96;93423.84;5110700;28;20038;-55
2021/09/12 10:22:19;;;;;;;29.67;28.00;;;;;;;41.43;11.05;93419.09;5110487;28;20019;-55
2021/09/12 10:24:59;;;;;;;12.63;11.55;;;;;;;41.39;10.15;93415.59;5093958;28;20035;-55
2021/09/12 10:27:41;;;;;;;11.38;10.32;;;;;;;41.11;9.83;93408.19;5089915;28;20032;-55
2021/09/12 10:30:38;;;;;;;10.93;10.15;;;;;;;40.89;10.32;93411.59;5089987;28;20116;-55
2021/09/12 10:33:06;;;;;;;13.52;12.27;;;;;;;39.61;11.27;93406.69;5090370;28;20413;-55
2021/09/12 10:36:04;;;;;;;15.05;14.07;;;;;;;38.32;13.04;93407.63;5090166;28;20032;-57
2021/09/12 10:38:32;;;;;;;32.50;30.00;;;;;;;37.96;13.56;93408.72;5089831;28;20040;-55
2021/09/12 10:41:03;;;;;;;27.50;25.98;;;;;;;37.89;14.02;93404.47;5103109;28;20034;-56
2021/09/12 10:43:30;;;;;;;20.88;19.60;;;;;;;38.51;13.07;93403.09;5114527;28;20027;-56
2021/09/12 10:46:01;;;;;;;15.23;14.02;;;;;;;39.39;11.59;93401.22;5114491;28;20077;-56
2021/09/12 10:48:37;;;;;;;9.85;9.07;;;;;;;40.19;11.46;93395.56;5114281;28;20028;-56
2021/09/12 10:51:05;;;;;;;9.82;8.68;;;;;;;39.58;11.20;93404.56;5114130;28;20024;-56
2021/09/12 10:53:45;;;;;;;13.82;12.95;;;;;;;38.55;11.39;93403.06;5113714;28;20052;-54
2021/09/12 10:56:17;;;;;;;14.38;13.52;;;;;;;36.80;14.04;93407.34;5113744;28;20066;-54
2021/09/12 10:58:51;;;;;;;15.52;14.52;;;;;;;36.66;12.80;93398.78;5113928;28;20500;-56
2021/09/12 11:01:28;;;;;;;17.00;15.93;;;;;;;35.72;14.71;93395.44;5113977;28;20016;-55
2021/09/12 11:03:58;;;;;;;13.00;12.00;;;;;;;34.40;14.81;93398.03;5114230;28;20028;-55
2021/09/12 11:06:25;;;;;;;16.98;15.77;;;;;;;35.06;15.82;93393.22;5113897;27;20106;-55